Enrose, Idaho
Current Conditions -  °F | °C
As of 2:15 AM on Sunday 26 Oct 2014 (Local Time) from KEUL Reporting Station
Broken Clouds Broken Clouds  
Wind Chill: 55°   Ceiling: 12000
Heat Index: 55°   Visibility: 10mi
Dew Point: 36°   Wind: 10mph
Humidity: 47%   Direction: 300°WNW
Pressure: 29.96"   Gusts: NA
Location:  43.676°N, 116.752°W
Report Text: KEUL 260815Z AUTO 30009KT 10SM SCT095 BKN120 13/02 A2996 RMK AO1
Loading
Personal Weather Stations






























Interactive Weather Map
Tropical Storm Tracking
New forecast layout! Learn more

10-Day Weather Forecast

Advertisements
Track Severe Weather on mobile